Time;durP1;ratioP1;P1;durP2;ratioP2;P2;SDS_P1;SDS_P2;PMS_P1;PMS_P2;Temp;Humidity;BMP_temperature;BMP_pressure;BME280_temperature;BME280_humidity;BME280_pressure;Samples;Min_cycle;Max_cycle;Signal;HPM_P1;HPM_P2
2022/07/07 00:01:01;;;;;;;1999.90;999.90;;;;;;;11.41;100.00;100029.09;5064637;28;20528;-50
2022/07/07 00:03:46;;;;;;;1999.90;999.90;;;;;;;11.29;100.00;100033.78;5060787;28;20056;-51
2022/07/07 00:06:31;;;;;;;1999.90;999.90;;;;;;;11.33;100.00;100027.56;5059830;28;20051;-51
2022/07/07 00:09:16;;;;;;;1999.90;999.90;;;;;;;11.30;100.00;100033.75;5061472;28;20055;-50
2022/07/07 00:12:00;;;;;;;1999.90;999.90;;;;;;;11.23;100.00;100030.41;5059913;28;20052;-51
2022/07/07 00:14:45;;;;;;;1999.90;999.90;;;;;;;11.21;100.00;100026.09;5058877;28;20052;-50
2022/07/07 00:17:29;;;;;;;1999.90;999.90;;;;;;;11.19;100.00;100033.16;5060935;28;20506;-50
2022/07/07 00:20:14;;;;;;;1999.90;999.90;;;;;;;11.02;100.00;100022.19;5060278;28;20083;-51
2022/07/07 00:22:58;;;;;;;1999.90;999.90;;;;;;;11.06;100.00;100022.09;5059882;28;20090;-51
2022/07/07 00:25:43;;;;;;;1999.90;999.90;;;;;;;11.12;100.00;100026.34;5061026;28;20048;-51
2022/07/07 00:28:27;;;;;;;1999.90;999.90;;;;;;;11.03;100.00;100011.69;5056128;28;20067;-51
2022/07/07 00:31:12;;;;;;;1999.90;999.90;;;;;;;11.03;100.00;100011.69;5054652;28;20692;-51
2022/07/07 00:33:56;;;;;;;1999.90;999.90;;;;;;;10.95;100.00;100019.72;5059809;28;20449;-51
2022/07/07 00:36:43;;;;;;;1999.90;999.90;;;;;;;10.88;100.00;100006.78;5060745;28;20098;-51
2022/07/07 00:39:27;;;;;;;1999.90;999.90;;;;;;;10.86;100.00;99998.97;5063392;28;20044;-50
2022/07/07 00:42:16;;;;;;;1999.90;999.90;;;;;;;10.94;100.00;100004.88;5062317;28;20074;-51
2022/07/07 00:45:00;;;;;;;1999.90;999.90;;;;;;;10.86;100.00;100004.22;5063908;28;20048;-51
2022/07/07 00:47:45;;;;;;;1999.90;999.90;;;;;;;10.68;100.00;99987.16;5060973;28;20761;-50
2022/07/07 00:50:29;;;;;;;1999.90;999.90;;;;;;;10.75;100.00;99996.59;5062812;28;20047;-51
2022/07/07 00:53:15;;;;;;;1999.90;999.90;;;;;;;10.72;100.00;100001.03;5063950;28;20131;-50
2022/07/07 00:55:59;;;;;;;1999.90;999.90;;;;;;;10.54;100.00;99989.22;5062549;28;20817;-51
2022/07/07 00:58:44;;;;;;;1999.90;999.90;;;;;;;10.62;100.00;99995.13;5064098;28;20052;-50
2022/07/07 01:01:30;;;;;;;1999.90;999.90;;;;;;;10.60;100.00;100001.31;5064135;28;20062;-51
2022/07/07 01:04:17;;;;;;;1999.90;999.90;;;;;;;10.67;100.00;99997.66;5065327;28;20045;-50
2022/07/07 01:07:01;;;;;;;1999.90;999.90;;;;;;;10.61;100.00;99980.31;5061946;28;20053;-51
2022/07/07 01:09:47;;;;;;;1999.90;999.90;;;;;;;10.57;100.00;99993.53;5065049;28;20493;-51
2022/07/07 01:12:36;;;;;;;1999.90;999.90;;;;;;;10.71;100.00;99994.06;5064360;28;20095;-51
2022/07/07 01:15:20;;;;;;;1999.90;999.90;;;;;;;10.66;100.00;99995.91;5063912;28;20048;-51
2022/07/07 01:18:06;;;;;;;1999.90;999.90;;;;;;;10.62;100.00;99995.13;5062107;28;20047;-51
2022/07/07 01:20:50;;;;;;;1999.90;999.90;;;;;;;10.65;100.00;100004.69;5064578;28;20119;-50
2022/07/07 01:23:35;;;;;;;1999.90;999.90;;;;;;;10.65;100.00;100002.06;5068989;28;20052;-50
2022/07/07 01:26:26;;;;;;;1999.90;999.90;;;;;;;10.56;100.00;99997.03;5065817;28;20063;-54
2022/07/07 01:29:11;;;;;;;1999.90;999.90;;;;;;;10.26;100.00;100000.25;5065971;28;20049;-52
2022/07/07 01:31:58;;;;;;;1999.90;999.90;;;;;;;10.24;100.00;99988.94;5066703;28;20040;-53
2022/07/07 01:34:45;;;;;;;1999.90;999.90;;;;;;;10.64;100.00;100003.84;5064774;28;20045;-54
2022/07/07 01:37:29;;;;;;;1999.90;999.90;;;;;;;10.46;100.00;99989.41;5066802;28;20053;-50
2022/07/07 01:40:14;;;;;;;1999.90;999.90;;;;;;;10.53;100.00;99998.84;5067139;28;20194;-51
2022/07/07 01:42:59;;;;;;;1999.90;999.90;;;;;;;10.56;100.00;100000.50;5064106;28;20048;-50
2022/07/07 01:45:43;;;;;;;1999.90;999.90;;;;;;;10.58;100.00;99998.72;5064081;28;20371;-50
2022/07/07 01:48:27;;;;;;;1999.90;999.90;;;;;;;10.44;100.00;99993.78;5069494;28;20059;-51
2022/07/07 01:51:12;;;;;;;1999.90;999.90;;;;;;;10.58;100.00;99998.72;5065913;28;20524;-52
2022/07/07 01:53:57;;;;;;;1999.90;999.90;;;;;;;10.58;100.00;99998.72;5063788;28;20032;-51
2022/07/07 01:56:41;;;;;;;1999.90;999.90;;;;;;;10.51;100.00;99997.16;5061222;28;20076;-51
2022/07/07 01:59:27;;;;;;;1999.90;999.90;;;;;;;10.64;100.00;99998.59;5062281;28;20052;-51
2022/07/07 02:02:13;;;;;;;1999.90;999.90;;;;;;;10.56;100.00;99983.94;5066662;28;20059;-50
2022/07/07 02:04:57;;;;;;;1999.90;999.90;;;;;;;10.67;100.00;99992.44;5067487;28;20052;-51
2022/07/07 02:07:41;;;;;;;1999.90;999.90;;;;;;;10.61;100.00;99997.81;5067163;28;20043;-51
2022/07/07 02:13:33;;;;;;;1999.90;999.90;;;;;;;10.58;100.00;99985.63;5049609;28;20055;-51
2022/07/07 02:16:23;;;;;;;1999.90;999.90;;;;;;;10.66;100.00;99988.97;5066688;28;20099;-51
2022/07/07 02:19:08;;;;;;;1999.90;999.90;;;;;;;10.70;100.00;99994.97;5066259;28;20052;-51
2022/07/07 02:21:53;;;;;;;1999.90;999.90;;;;;;;10.77;100.00;99986.94;5064164;28;20048;-51
2022/07/07 02:24:37;;;;;;;1999.90;999.90;;;;;;;10.59;100.00;99984.72;5068092;28;20137;-51
2022/07/07 02:27:22;;;;;;;1999.90;999.90;;;;;;;10.78;100.00;99979.94;5066599;28;20067;-50
2022/07/07 02:30:07;;;;;;;1999.90;999.90;;;;;;;10.79;100.00;99981.69;5065306;28;20051;-50
2022/07/07 02:32:51;;;;;;;1999.90;999.90;;;;;;;10.75;100.00;99980.88;5061080;28;20052;-51
2022/07/07 02:35:36;;;;;;;1999.90;999.90;;;;;;;10.82;100.00;99975.47;5066240;28;20051;-51
2022/07/07 02:38:22;;;;;;;1999.90;999.90;;;;;;;10.88;100.00;99970.09;5066145;28;20040;-50
2022/07/07 02:41:07;;;;;;;1999.90;999.90;;;;;;;10.86;100.00;99977.16;5065406;28;20055;-50
2022/07/07 02:43:52;;;;;;;1999.90;999.90;;;;;;;10.75;100.00;99977.38;5066601;28;20056;-51
2022/07/07 02:46:36;;;;;;;1999.90;999.90;;;;;;;10.90;100.00;99973.56;5065677;28;20040;-51
2022/07/07 02:49:21;;;;;;;1999.90;999.90;;;;;;;10.85;100.00;99973.66;5063481;28;20098;-50
2022/07/07 02:52:05;;;;;;;1999.90;999.90;;;;;;;10.87;100.00;99981.50;5068048;28;20055;-51
2022/07/07 02:54:50;;;;;;;1999.90;999.90;;;;;;;10.86;100.00;99985.88;5067333;28;20093;-50
2022/07/07 02:57:34;;;;;;;1999.90;999.90;;;;;;;10.92;100.00;99982.22;5065645;28;20052;-51
2022/07/07 03:00:19;;;;;;;1999.90;999.90;;;;;;;11.00;100.00;99969.81;5063778;28;20099;-50
2022/07/07 03:03:05;;;;;;;1999.90;999.90;;;;;;;11.06;100.00;99982.78;5066973;28;20033;-50
2022/07/07 03:05:50;;;;;;;1999.90;999.90;;;;;;;11.14;100.00;99969.47;5067087;28;20047;-50
2022/07/07 03:08:34;;;;;;;1999.90;999.90;;;;;;;11.02;100.00;99973.28;5063967;28;20044;-52
2022/07/07 03:11:19;;;;;;;1999.90;999.90;;;;;;;11.08;100.00;99975.75;5064307;28;20087;-51
2022/07/07 03:14:03;;;;;;;1999.90;999.90;;;;;;;11.17;100.00;99959.75;5066710;28;20049;-51
2022/07/07 03:16:48;;;;;;;1999.90;999.90;;;;;;;11.27;100.00;99977.91;5066455;28;20049;-51
2022/07/07 03:19:34;;;;;;;1999.90;999.90;;;;;;;11.32;100.00;99974.25;5065429;28;20123;-52
2022/07/07 03:22:19;;;;;;;1999.90;999.90;;;;;;;11.39;100.00;99969.72;5063244;28;20205;-50
2022/07/07 03:25:04;;;;;;;1999.90;999.90;;;;;;;11.34;100.00;99968.97;5065101;28;20120;-50
2022/07/07 03:27:49;;;;;;;1999.90;999.90;;;;;;;11.47;100.00;99965.13;5066534;28;20083;-50
2022/07/07 03:30:33;;;;;;;1999.90;999.90;;;;;;;11.32;100.00;99966.41;5065141;28;20051;-52
2022/07/07 03:33:17;;;;;;;1999.90;999.90;;;;;;;11.50;100.00;99959.78;5068322;28;20417;-50
2022/07/07 03:36:02;;;;;;;1999.90;999.90;;;;;;;11.52;100.00;99963.25;5063872;28;20411;-52
2022/07/07 03:38:47;;;;;;;1999.90;999.90;;;;;;;11.41;100.00;99967.94;5068156;28;20048;-50
2022/07/07 03:41:31;;;;;;;1999.90;999.90;;;;;;;11.60;100.00;99952.53;5063852;28;20109;-50
2022/07/07 03:44:15;;;;;;;1999.90;999.90;;;;;;;11.69;100.00;99958.41;5063896;28;20040;-50
2022/07/07 03:47:00;;;;;;;1999.90;999.90;;;;;;;11.60;100.00;99961.31;5062059;28;20185;-52
2022/07/07 03:49:44;;;;;;;1999.90;999.90;;;;;;;11.79;100.00;99961.63;5061579;28;20478;-52
2022/07/07 03:52:29;;;;;;;1999.90;999.90;;;;;;;11.83;100.00;99963.28;5066464;28;20057;-50
2022/07/07 03:55:13;;;;;;;1999.90;999.90;;;;;;;11.96;100.00;99953.34;5064639;28;20498;-51
2022/07/07 03:57:58;;;;;;;1999.90;999.90;;;;;;;11.85;100.00;99952.78;5063724;28;20135;-51
2022/07/07 04:00:42;;;;;;;1999.90;999.90;;;;;;;12.04;100.00;99959.22;5062781;28;20098;-52
2022/07/07 04:03:27;;;;;;;1999.90;999.90;;;;;;;12.10;100.00;99955.56;5066289;28;20045;-51
2022/07/07 04:06:11;;;;;;;1999.90;999.90;;;;;;;12.29;100.00;99953.28;5066236;28;20051;-50
2022/07/07 04:08:55;;;;;;;1999.90;999.90;;;;;;;12.28;100.00;99951.53;5065361;28;20173;-50
2022/07/07 04:11:40;;;;;;;1999.90;999.90;;;;;;;12.45;100.00;99949.28;5062920;28;20513;-51
2022/07/07 04:14:24;;;;;;;1999.90;999.90;;;;;;;12.54;100.00;99948.97;5064015;28;20034;-50
2022/07/07 04:17:10;;;;;;;1999.90;999.90;;;;;;;12.57;100.00;99951.50;5066730;28;20059;-51
2022/07/07 04:19:54;;;;;;;1999.90;999.90;;;;;;;12.74;100.00;99943.13;5065781;28;20106;-52
2022/07/07 04:22:38;;;;;;;1999.90;999.90;;;;;;;13.08;100.00;99940.22;5065722;28;20067;-51
2022/07/07 04:25:23;;;;;;;1999.90;999.90;;;;;;;13.12;100.00;99935.72;5063678;28;20057;-51
2022/07/07 04:28:08;;;;;;;1999.90;999.90;;;;;;;13.39;100.00;99941.00;5064319;28;20049;-51
2022/07/07 04:30:52;;;;;;;1999.90;999.90;;;;;;;13.63;100.00;99941.94;5065184;28;20044;-51
2022/07/07 04:33:37;;;;;;;1999.90;999.90;;;;;;;13.50;100.00;99941.50;5057979;28;20044;-51
2022/07/07 04:36:21;;;;;;;1999.90;999.90;;;;;;;13.62;100.00;99940.22;5059140;28;20060;-51
2022/07/07 04:39:06;;;;;;;1999.90;999.90;;;;;;;13.60;100.00;99939.41;5059394;28;20045;-51
2022/07/07 04:41:50;;;;;;;1999.90;999.90;;;;;;;13.76;100.00;99932.69;5060376;28;20154;-51
2022/07/07 04:44:35;;;;;;;1999.90;999.90;;;;;;;13.80;100.00;99924.59;5058365;28;20048;-51
2022/07/07 04:47:19;;;;;;;1999.90;999.90;;;;;;;13.79;100.00;99929.94;5058017;28;20048;-51
2022/07/07 04:50:04;;;;;;;1999.90;999.90;;;;;;;14.02;100.00;99932.56;5058495;28;20041;-50
2022/07/07 04:52:49;;;;;;;1999.90;999.90;;;;;;;14.00;100.00;99928.28;5059817;28;20060;-51
2022/07/07 04:55:33;;;;;;;1999.90;999.90;;;;;;;14.05;100.00;99928.13;5063160;28;20037;-51
2022/07/07 04:58:17;;;;;;;1999.90;999.90;;;;;;;14.12;100.00;99930.47;5062561;28;20446;-51
2022/07/07 05:01:02;;;;;;;1999.90;999.90;;;;;;;14.14;100.00;99926.00;5058499;28;20142;-52
2022/07/07 05:03:46;;;;;;;1999.90;999.90;;;;;;;14.21;100.00;99926.63;5061109;28;20049;-52
2022/07/07 05:06:31;;;;;;;1999.90;999.90;;;;;;;14.62;100.00;99937.34;5061829;28;20045;-52
2022/07/07 05:09:15;;;;;;;1999.90;999.90;;;;;;;14.48;100.00;99927.34;5058542;28;20097;-52
2022/07/07 05:12:01;;;;;;;1999.90;999.90;;;;;;;14.68;100.00;99931.84;5064337;28;20071;-52
2022/07/07 05:14:47;;;;;;;1999.90;999.90;;;;;;;14.64;100.00;99923.19;5065544;28;20047;-52
2022/07/07 05:17:32;;;;;;;1999.90;999.90;;;;;;;14.39;100.00;99928.53;5065702;28;20543;-52
2022/07/07 05:20:16;;;;;;;1999.90;999.90;;;;;;;14.47;100.00;99928.25;5066477;28;20049;-52
2022/07/07 05:23:01;;;;;;;1999.90;999.90;;;;;;;14.45;100.00;99922.19;5066214;28;20661;-52
2022/07/07 05:25:45;;;;;;;1999.90;999.90;;;;;;;14.53;100.00;99925.41;5065479;28;20086;-51
2022/07/07 05:28:30;;;;;;;1999.90;999.90;;;;;;;14.24;100.00;99922.09;5066010;28;20059;-51
2022/07/07 05:31:15;;;;;;;1999.90;999.90;;;;;;;14.41;100.00;99921.44;5064847;28;20048;-51
2022/07/07 05:34:00;;;;;;;1999.90;999.90;;;;;;;14.38;100.00;99913.66;5059781;28;20055;-52
2022/07/07 05:36:45;;;;;;;1999.90;999.90;;;;;;;14.48;100.00;99920.28;5062870;28;20071;-53
2022/07/07 05:39:33;;;;;;;1999.90;999.90;;;;;;;14.37;100.00;99916.38;5060073;28;20387;-55
2022/07/07 05:42:17;;;;;;;1999.90;999.90;;;;;;;14.83;100.00;99920.69;5060653;28;20091;-51
2022/07/07 05:45:02;;;;;;;1999.90;999.90;;;;;;;15.45;100.00;99910.19;5062301;28;20476;-51
2022/07/07 05:47:47;;;;;;;1999.90;999.90;;;;;;;16.28;100.00;99918.78;5058399;28;20387;-52
2022/07/07 05:50:32;;;;;;;1999.90;999.90;;;;;;;16.62;100.00;99916.31;5062409;28;20053;-52
2022/07/07 05:53:16;;;;;;;1999.90;999.90;;;;;;;17.24;100.00;99918.53;5061738;28;20055;-52
2022/07/07 05:56:00;;;;;;;1999.90;999.90;;;;;;;17.28;100.00;99921.88;5062783;28;20048;-53
2022/07/07 05:58:45;;;;;;;1999.90;999.90;;;;;;;17.82;100.00;99922.63;5063121;28;20048;-52
2022/07/07 06:01:29;;;;;;;1999.90;999.90;;;;;;;16.92;100.00;99914.00;5060200;28;20097;-52
2022/07/07 06:04:14;;;;;;;1999.90;999.90;;;;;;;18.01;100.00;99917.19;5060420;28;20052;-52
2022/07/07 06:06:58;;;;;;;1999.90;999.90;;;;;;;18.34;100.00;99911.00;5060077;28;20071;-53
2022/07/07 06:09:42;;;;;;;1999.90;999.90;;;;;;;18.91;100.00;99906.88;5060684;28;20114;-54
2022/07/07 06:12:27;;;;;;;1999.90;999.90;;;;;;;19.42;100.00;99900.38;5063868;28;20056;-54
2022/07/07 06:15:12;;;;;;;1999.90;999.90;;;;;;;19.56;100.00;99889.75;5064126;28;20083;-54
2022/07/07 06:17:59;;;;;;;1999.90;999.90;;;;;;;19.45;100.00;99895.72;5066166;28;20049;-52
2022/07/07 06:20:44;;;;;;;1999.90;999.90;;;;;;;19.90;100.00;99898.34;5064073;28;20028;-54
2022/07/07 06:23:29;;;;;;;1999.90;999.90;;;;;;;20.06;100.00;99896.44;5066340;28;20055;-54
2022/07/07 06:26:13;;;;;;;1999.90;999.90;;;;;;;20.34;100.00;99892.88;5068479;28;20593;-53
2022/07/07 06:28:58;;;;;;;1999.90;999.90;;;;;;;20.01;100.00;99890.56;5066140;28;20391;-53
2022/07/07 06:31:42;;;;;;;1999.90;999.90;;;;;;;20.25;100.00;99883.69;5068407;28;20452;-54
2022/07/07 06:34:27;;;;;;;1999.90;999.90;;;;;;;19.94;100.00;99875.94;5065149;28;20051;-53
2022/07/07 06:37:11;;;;;;;1999.90;999.90;;;;;;;20.35;100.00;99875.97;5068000;28;20924;-54
2022/07/07 06:39:56;;;;;;;1999.90;999.90;;;;;;;20.65;99.74;99886.47;5068207;28;20052;-54
2022/07/07 06:42:40;;;;;;;1999.90;999.90;;;;;;;20.36;98.45;99880.34;5069439;28;20444;-55
2022/07/07 06:45:30;;;;;;;1999.90;999.90;;;;;;;21.51;94.87;99869.19;5068344;28;20055;-54
2022/07/07 06:48:14;;;;;;;1999.90;999.90;;;;;;;21.30;95.03;99876.81;5068828;28;20430;-54
2022/07/07 06:50:59;;;;;;;1999.90;999.90;;;;;;;21.76;89.94;99871.84;5068211;28;20055;-53
2022/07/07 06:53:44;;;;;;;1999.90;999.90;;;;;;;21.65;90.32;99869.94;5067910;28;20596;-53
2022/07/07 06:56:28;;;;;;;1999.90;999.90;;;;;;;22.29;89.95;99869.84;5066485;28;20407;-54
2022/07/07 06:59:13;;;;;;;1999.90;999.90;;;;;;;21.61;90.30;99865.78;5065290;28;20091;-53
2022/07/07 07:01:57;;;;;;;1999.90;999.90;;;;;;;22.37;84.35;99869.31;5064680;28;20048;-54
2022/07/07 07:04:42;;;;;;;1999.90;999.90;;;;;;;22.60;81.79;99865.78;5063525;28;20072;-53
2022/07/07 07:07:29;;;;;;;1999.90;999.90;;;;;;;23.00;82.36;99864.66;5061599;28;20044;-54
2022/07/07 07:10:14;;;;;;;1999.90;999.90;;;;;;;22.93;78.01;99866.94;5058306;28;20079;-54
2022/07/07 07:12:58;;;;;;;1999.90;999.90;;;;;;;22.09;76.45;99859.75;5062147;28;20072;-55
2022/07/07 07:15:44;;;;;;;1999.90;999.90;;;;;;;23.21;77.50;99852.34;5067091;28;20041;-54
2022/07/07 07:18:28;;;;;;;1999.90;999.90;;;;;;;23.01;75.40;99851.19;5063063;28;20063;-54
2022/07/07 07:21:13;;;;;;;1999.90;999.90;;;;;;;22.83;74.92;99849.88;5063849;28;20052;-54
2022/07/07 07:23:57;;;;;;;1999.90;999.90;;;;;;;23.62;80.40;99847.41;5064628;28;20044;-54
2022/07/07 07:26:42;;;;;;;1999.90;999.90;;;;;;;24.62;71.80;99843.78;5061611;28;20486;-53
2022/07/07 07:29:26;;;;;;;1999.90;999.90;;;;;;;23.28;74.70;99852.72;5067148;28;20055;-54
2022/07/07 07:32:10;;;;;;;1999.90;999.90;;;;;;;23.33;73.24;99840.72;5065964;28;20071;-54
2022/07/07 07:34:55;;;;;;;1999.90;999.90;;;;;;;23.50;71.50;99842.06;5068195;28;20068;-54
2022/07/07 07:37:40;;;;;;;1999.90;999.90;;;;;;;23.18;68.93;99846.38;5064337;28;20450;-54
2022/07/07 07:40:24;;;;;;;1999.90;999.90;;;;;;;23.84;70.64;99849.28;5068913;28;20482;-54
2022/07/07 07:43:09;;;;;;;1999.90;999.90;;;;;;;24.11;68.66;99839.00;5066361;28;20073;-54
2022/07/07 07:45:53;;;;;;;1999.90;999.90;;;;;;;22.88;73.45;99837.03;5061754;28;20049;-55
2022/07/07 07:48:38;;;;;;;1999.90;999.90;;;;;;;23.39;73.22;99838.50;5067541;28;20107;-54
2022/07/07 07:51:22;;;;;;;1999.90;999.90;;;;;;;22.64;74.04;99845.06;5064307;28;20051;-54
2022/07/07 07:54:07;;;;;;;1999.90;999.90;;;;;;;22.49;72.66;99840.84;5064286;28;20155;-54
2022/07/07 07:56:51;;;;;;;1999.90;999.90;;;;;;;22.71;72.48;99834.78;5059664;28;20411;-56
2022/07/07 07:59:35;;;;;;;1999.90;999.90;;;;;;;21.32;74.67;99840.25;5060241;28;20079;-55
2022/07/07 08:02:20;;;;;;;1999.90;999.90;;;;;;;22.08;79.29;99839.38;5060006;28;20526;-54
2022/07/07 08:05:05;;;;;;;1999.90;999.90;;;;;;;22.61;78.02;99832.78;5062655;28;20052;-54
2022/07/07 08:07:49;;;;;;;1999.90;999.90;;;;;;;22.22;73.63;99833.06;5059484;28;20075;-54
2022/07/07 08:10:34;;;;;;;1999.90;999.90;;;;;;;22.43;77.68;99836.00;5061739;28;20029;-55
2022/07/07 08:13:19;;;;;;;1999.90;999.90;;;;;;;22.06;72.76;99836.81;5059898;28;20048;-53
2022/07/07 08:16:03;;;;;;;1999.90;999.90;;;;;;;22.24;73.15;99826.66;5059190;28;20055;-54
2022/07/07 08:18:48;;;;;;;1999.90;999.90;;;;;;;23.36;76.23;99831.59;5060138;28;20052;-54
2022/07/07 08:21:32;;;;;;;1999.90;999.90;;;;;;;23.62;70.56;99831.38;5058531;28;20147;-53
2022/07/07 08:24:17;;;;;;;1999.90;999.90;;;;;;;22.93;71.24;99837.56;5060474;28;20487;-55
2022/07/07 08:27:02;;;;;;;1999.90;999.90;;;;;;;23.77;72.76;99838.22;5057711;28;20040;-55
2022/07/07 08:29:47;;;;;;;1999.90;999.90;;;;;;;24.23;68.61;99832.69;5059689;28;20045;-54
2022/07/07 08:32:32;;;;;;;1999.90;999.90;;;;;;;24.77;61.57;99827.44;5074728;28;20052;-55
2022/07/07 08:35:16;;;;;;;1999.90;999.90;;;;;;;24.31;69.70;99826.72;5058927;28;20036;-55
2022/07/07 08:38:01;;;;;;;1999.90;999.90;;;;;;;23.69;67.93;99824.59;5059772;28;20048;-55
2022/07/07 08:40:45;;;;;;;1999.90;999.90;;;;;;;24.99;nan;99827.31;5061792;28;20416;-55
2022/07/07 08:43:29;;;;;;;1999.90;999.90;;;;;;;26.03;62.07;99823.69;5060547;28;20857;-55
2022/07/07 08:46:14;;;;;;;1999.90;999.90;;;;;;;25.06;57.46;99815.09;5062784;28;20051;-55
2022/07/07 08:48:59;;;;;;;1999.90;999.90;;;;;;;24.55;60.28;99817.66;5059299;28;20060;-55
2022/07/07 08:51:45;;;;;;;1999.90;999.90;;;;;;;23.33;62.12;99803.31;5061003;28;20094;-55
2022/07/07 08:54:32;;;;;;;1999.90;999.90;;;;;;;24.58;62.43;99828.97;5059532;28;20053;-54
2022/07/07 08:57:17;;;;;;;1999.90;999.90;;;;;;;24.88;60.94;99811.31;5055954;28;20375;-55
2022/07/07 09:00:02;;;;;;;1999.90;999.90;;;;;;;24.21;58.96;99820.38;5056377;28;20561;-55
2022/07/07 09:02:49;;;;;;;1999.90;999.90;;;;;;;23.08;63.82;99812.34;5055643;28;20060;-55
2022/07/07 09:05:37;;;;;;;1999.90;999.90;;;;;;;23.17;66.71;99824.16;5061081;28;20106;-55
2022/07/07 09:08:23;;;;;;;1999.90;999.90;;;;;;;24.48;62.58;99818.16;5059168;28;20040;-55
2022/07/07 09:11:09;;;;;;;1999.90;999.90;;;;;;;25.58;59.24;99815.16;5062885;28;20048;-55
2022/07/07 09:14:09;;;;;;;1999.90;999.90;;;;;;;23.58;62.54;99817.41;5064172;28;20385;-54
2022/07/07 09:17:01;;;;;;;1999.90;999.90;;;;;;;23.31;60.79;99813.25;5064282;28;20156;-55
2022/07/07 09:20:04;;;;;;;1999.90;999.90;;;;;;;24.10;58.57;99818.59;5029792;28;20080;-54
2022/07/07 09:22:56;;;;;;;1999.90;999.90;;;;;;;23.82;60.81;99811.94;5044461;28;20128;-55
2022/07/07 09:25:42;;;;;;;1999.90;999.90;;;;;;;23.01;61.17;99813.81;5045929;28;20076;-55
2022/07/07 09:28:27;;;;;;;1999.90;999.90;;;;;;;23.01;61.50;99819.16;5043348;28;20087;-54
2022/07/07 09:31:14;;;;;;;1999.90;999.90;;;;;;;23.89;62.23;99813.16;5043328;28;20399;-54
2022/07/07 09:34:13;;;;;;;1999.90;999.90;;;;;;;23.10;59.58;99809.56;5041890;28;20674;-55
2022/07/07 09:40:03;;;;;;;1999.90;999.90;;;;;;;23.18;62.13;99807.16;5038338;28;20043;-54
2022/07/07 09:42:48;;;;;;;1999.90;999.90;;;;;;;23.36;61.75;99809.34;5041368;28;20090;-55
2022/07/07 09:45:32;;;;;;;1999.90;999.90;;;;;;;23.88;65.34;99806.09;5044803;28;20638;-55
2022/07/07 09:48:17;;;;;;;1999.90;999.90;;;;;;;24.10;63.02;99804.38;5044416;28;20044;-54
2022/07/07 09:51:17;;;;;;;1999.90;999.90;;;;;;;24.70;61.24;99811.88;5039890;28;20098;-55
2022/07/07 09:54:10;;;;;;;1999.90;999.90;;;;;;;24.62;59.14;99811.66;5042395;28;20123;-55
2022/07/07 09:56:54;;;;;;;;;;;;;;;23.14;62.41;99808.38;5044319;28;20048;-55
2022/07/07 09:59:41;;;;;;;1999.90;999.90;;;;;;;24.34;59.30;99809.53;5045944;28;19956;-55
2022/07/07 10:02:32;;;;;;;1999.90;999.90;;;;;;;24.88;56.55;99812.16;5044803;28;20056;-55
2022/07/07 10:05:19;;;;;;;1999.90;999.90;;;;;;;24.62;57.96;99808.97;5045461;28;20401;-56
2022/07/07 10:08:03;;;;;;;1999.90;999.90;;;;;;;24.63;56.27;99808.00;5045132;28;20056;-55
2022/07/07 10:10:48;;;;;;;1999.90;999.90;;;;;;;25.15;61.97;99810.81;5045906;28;20056;-55
2022/07/07 10:13:37;;;;;;;1999.90;999.90;;;;;;;24.26;55.08;99813.69;5045369;28;20071;-56
2022/07/07 10:16:21;;;;;;;1999.90;999.90;;;;;;;24.28;55.89;99810.91;5045153;28;20103;-55
2022/07/07 10:19:12;;;;;;;1999.90;999.90;;;;;;;23.72;57.68;99811.84;5040632;28;20108;-55
2022/07/07 10:21:58;;;;;;;1999.90;999.90;;;;;;;24.62;55.94;99813.50;5046543;28;20056;-55
2022/07/07 10:24:43;;;;;;;1999.90;999.90;;;;;;;25.36;53.61;99805.44;5042694;28;20044;-55
2022/07/07 10:27:29;;;;;;;1999.90;999.90;;;;;;;25.02;56.35;99804.75;5044533;28;20056;-55
2022/07/07 10:30:28;;;;;;;1999.90;999.90;;;;;;;24.97;54.45;99796.28;5044371;28;20095;-55
2022/07/07 10:33:13;;;;;;;1999.90;999.90;;;;;;;24.88;57.98;99798.75;5041812;28;20053;-55
2022/07/07 10:35:58;;;;;;;1999.90;999.90;;;;;;;25.44;55.01;99802.09;5042790;28;20073;-55
2022/07/07 10:38:43;;;;;;;1999.90;999.90;;;;;;;23.82;56.16;99803.06;5043672;28;20061;-55
2022/07/07 10:41:27;;;;;;;1999.90;999.90;;;;;;;24.34;57.73;99793.47;5042792;28;20500;-55
2022/07/07 10:44:12;;;;;;;1999.90;999.90;;;;;;;23.73;59.16;99794.81;5042900;28;20456;-55
2022/07/07 10:47:17;;;;;;;1999.90;999.90;;;;;;;23.69;59.42;99792.50;5044701;28;20041;-55
2022/07/07 10:50:20;;;;;;;1999.90;999.90;;;;;;;23.46;60.10;99788.97;5042814;28;20053;-55
2022/07/07 10:53:29;;;;;;;1999.90;999.90;;;;;;;23.18;62.49;99788.47;5042249;28;20501;-55
2022/07/07 10:56:14;;;;;;;1999.90;999.90;;;;;;;23.65;59.70;99788.34;5040702;28;20045;-55
2022/07/07 10:58:59;;;;;;;1999.90;999.90;;;;;;;23.68;59.07;99782.75;5039318;28;20047;-56
2022/07/07 11:02:02;;;;;;;1999.90;999.90;;;;;;;24.71;57.42;99776.09;5037992;28;20107;-55
2022/07/07 11:04:46;;;;;;;1999.90;999.90;;;;;;;24.25;59.83;99776.38;5038531;28;20095;-55
2022/07/07 11:07:31;;;;;;;1999.90;999.90;;;;;;;23.74;63.36;99787.66;5041979;28;20665;-54
2022/07/07 11:10:15;;;;;;;1999.90;999.90;;;;;;;22.56;61.01;99789.59;5042555;28;21024;-55
2022/07/07 11:13:13;;;;;;;1999.90;999.90;;;;;;;22.61;61.42;99781.22;5065183;28;20060;-56
2022/07/07 11:16:05;;;;;;;1999.90;999.90;;;;;;;21.73;65.05;99791.25;5043101;28;20059;-56
2022/07/07 11:18:59;;;;;;;1999.90;999.90;;;;;;;22.08;65.21;99789.56;5037305;28;20110;-56
2022/07/07 11:21:46;;;;;;;1999.90;999.90;;;;;;;21.64;64.47;99785.63;5037973;28;20045;-56
2022/07/07 11:24:31;;;;;;;1999.90;999.90;;;;;;;21.28;64.32;99783.69;5042548;28;20049;-55
2022/07/07 11:27:27;;;;;;;1999.90;999.90;;;;;;;21.56;66.18;99790.66;5040607;28;20040;-56
2022/07/07 11:30:12;;;;;;;1999.90;999.90;;;;;;;22.03;65.39;99793.50;5041268;28;20052;-55
2022/07/07 11:32:58;;;;;;;1999.90;999.90;;;;;;;22.12;65.23;99780.34;5035734;28;20090;-55
2022/07/07 11:35:43;;;;;;;1999.90;999.90;;;;;;;21.63;64.73;99783.91;5039081;28;20071;-55
2022/07/07 11:38:28;;;;;;;1999.90;999.90;;;;;;;21.77;67.51;99769.59;5041880;28;20488;-57
2022/07/07 11:41:13;;;;;;;1999.90;999.90;;;;;;;21.82;65.03;99782.59;5042516;28;20095;-55
2022/07/07 11:43:58;;;;;;;1999.90;999.90;;;;;;;23.06;66.45;99776.91;5041795;28;20098;-55
2022/07/07 11:46:46;;;;;;;1999.90;999.90;;;;;;;23.30;61.52;99778.63;5040895;28;20075;-56
2022/07/07 11:49:30;;;;;;;1999.90;999.90;;;;;;;22.95;67.81;99770.69;5043249;28;20074;-55
2022/07/07 11:52:16;;;;;;;1999.90;999.90;;;;;;;23.05;66.16;99769.88;5043717;28;20663;-55
2022/07/07 11:55:03;;;;;;;1999.90;999.90;;;;;;;23.98;60.88;99760.75;5042468;28;20059;-55
2022/07/07 11:58:00;;;;;;;1999.90;999.90;;;;;;;22.96;61.91;99761.72;5042526;28;20542;-55
2022/07/07 12:00:44;;;;;;;1999.90;999.90;;;;;;;23.57;63.76;99759.56;5040828;28;20051;-59
2022/07/07 12:03:32;;;;;;;1999.90;999.90;;;;;;;24.22;62.66;99758.75;5040006;28;20052;-56
2022/07/07 12:06:16;;;;;;;1999.90;999.90;;;;;;;23.26;59.01;99756.63;5040811;28;20543;-55
2022/07/07 12:09:02;;;;;;;1999.90;999.90;;;;;;;23.94;62.27;99760.16;5041924;28;20057;-55
2022/07/07 12:11:48;;;;;;;1999.90;999.90;;;;;;;23.99;61.65;99754.44;5038514;28;20059;-56
2022/07/07 12:14:32;;;;;;;1999.90;999.90;;;;;;;24.30;62.86;99757.25;5041286;28;20049;-55
2022/07/07 12:17:39;;;;;;;1999.90;999.90;;;;;;;23.30;60.62;99762.59;5043780;28;20076;-55